Time;durP1;ratioP1;P1;durP2;ratioP2;P2;SDS_P1;SDS_P2;PMS_P1;PMS_P2;Temp;Humidity;BMP_temperature;BMP_pressure;BME280_temperature;BME280_humidity;BME280_pressure;Samples;Min_cycle;Max_cycle;Signal;HPM_P1;HPM_P2
2022/08/28 00:00:04;;;;;;;33.95;17.42;;;;;;;16.80;100.00;95820.66;5026792;28;24507;-77
2022/08/28 00:02:32;;;;;;;18.23;16.42;;;;;;;16.84;100.00;95812.41;5029371;28;24442;-77
2022/08/28 00:05:00;;;;;;;20.58;18.10;;;;;;;16.89;100.00;95819.84;5029669;28;24836;-77
2022/08/28 00:07:28;;;;;;;21.98;17.95;;;;;;;16.82;100.00;95824.78;5031501;28;24537;-77
2022/08/28 00:09:54;;;;;;;19.02;17.05;;;;;;;16.90;100.00;95821.50;5028979;28;24432;-77
2022/08/28 00:12:21;;;;;;;21.38;19.25;;;;;;;16.91;100.00;95823.16;5029258;28;24435;-77
2022/08/28 00:14:47;;;;;;;25.52;21.48;;;;;;;16.81;100.00;95819.69;5029419;28;24443;-77
2022/08/28 00:17:14;;;;;;;23.70;21.35;;;;;;;16.88;100.00;95818.19;5029349;28;24977;-77
2022/08/28 00:19:40;;;;;;;25.33;21.65;;;;;;;16.96;100.00;95822.75;5032751;28;24979;-77
2022/08/28 00:22:07;;;;;;;32.08;22.10;;;;;;;17.01;100.00;95824.00;5032674;28;24466;-77
2022/08/28 00:24:36;;;;;;;21.23;18.00;;;;;;;17.06;100.00;95821.81;5032609;28;25053;-77
2022/08/28 00:29:46;;;;;;;14.55;13.05;;;;;;;17.04;100.00;95815.88;5023464;28;24410;-77
2022/08/28 00:32:13;;;;;;;12.00;9.70;;;;;;;17.10;100.00;95817.97;5034133;28;24444;-77
2022/08/28 00:34:40;;;;;;;14.35;9.82;;;;;;;17.10;100.00;95807.50;5032802;28;24451;-77
2022/08/28 00:37:07;;;;;;;13.37;11.70;;;;;;;17.19;100.00;95811.09;5028607;28;24427;-77
2022/08/28 00:39:34;;;;;;;13.07;11.87;;;;;;;17.16;100.00;95820.03;5042771;28;24431;-77
2022/08/28 00:42:01;;;;;;;11.53;10.40;;;;;;;17.03;100.00;95816.84;5033059;28;24459;-77
2022/08/28 00:44:28;;;;;;;11.18;10.07;;;;;;;17.00;100.00;95813.69;5049392;28;24447;-77
2022/08/28 00:46:57;;;;;;;13.68;12.25;;;;;;;17.01;100.00;95815.31;5047509;28;24448;-77
2022/08/28 00:49:27;;;;;;;15.75;12.93;;;;;;;16.95;100.00;95816.69;5031135;28;24844;-77
2022/08/28 00:52:10;;;;;;;16.35;13.13;;;;;;;16.99;100.00;95812.03;5033441;28;24443;-77
2022/08/28 00:54:42;;;;;;;12.35;10.60;;;;;;;16.96;100.00;95802.66;5032144;28;24568;-77
2022/08/28 00:57:13;;;;;;;10.93;7.72;;;;;;;16.92;100.00;95806.50;5031924;28;24557;-77
2022/08/28 00:59:39;;;;;;;9.10;8.00;;;;;;;16.88;100.00;95810.34;5032184;28;24439;-77
2022/08/28 01:02:07;;;;;;;11.45;9.65;;;;;;;16.91;100.00;95810.91;5031538;28;24432;-77
2022/08/28 01:04:35;;;;;;;9.70;8.55;;;;;;;16.92;100.00;95803.88;5031398;28;25019;-77
2022/08/28 01:07:06;;;;;;;10.23;9.23;;;;;;;16.91;100.00;95810.91;5033607;28;24459;-77
2022/08/28 01:09:34;;;;;;;14.05;9.35;;;;;;;16.90;100.00;95798.75;5031416;28;24450;-77
2022/08/28 01:12:07;;;;;;;10.90;9.80;;;;;;;16.95;100.00;95803.63;5031249;28;24440;-77
2022/08/28 01:14:37;;;;;;;13.70;11.27;;;;;;;16.95;100.00;95801.00;5031664;28;24436;-77
2022/08/28 01:17:06;;;;;;;14.05;12.13;;;;;;;16.91;100.00;95812.69;5031889;28;24436;-77
2022/08/28 01:19:36;;;;;;;13.70;12.10;;;;;;;16.88;100.00;95812.97;5031425;28;24443;-77
2022/08/28 01:22:14;;;;;;;15.73;13.27;;;;;;;16.88;100.00;95815.56;5030919;28;24436;-77
2022/08/28 01:24:44;;;;;;;15.23;13.05;;;;;;;16.90;100.00;95808.41;5031231;28;24436;-77
2022/08/28 01:27:11;;;;;;;14.82;13.23;;;;;;;16.91;100.00;95813.53;5034198;28;24506;-77
2022/08/28 01:29:38;;;;;;;16.75;14.80;;;;;;;16.93;100.00;95802.91;5032297;28;24436;-77
2022/08/28 01:32:05;;;;;;;17.65;15.68;;;;;;;16.95;100.00;95795.78;5031101;28;24444;-77
2022/08/28 01:34:32;;;;;;;34.65;14.55;;;;;;;16.79;100.00;95800.66;5031078;28;24435;-77
2022/08/28 01:36:59;;;;;;;67.00;14.60;;;;;;;16.65;100.00;95794.00;5030794;28;24439;-77
2022/08/28 01:39:26;;;;;;;37.67;12.90;;;;;;;16.66;100.00;95803.50;5030821;28;24444;-77
2022/08/28 01:41:58;;;;;;;15.65;13.73;;;;;;;16.61;100.00;95803.91;5030484;28;24447;-77
2022/08/28 01:44:26;;;;;;;16.98;15.23;;;;;;;16.57;100.00;95799.88;5030938;28;24787;-77
2022/08/28 01:46:54;;;;;;;17.97;14.57;;;;;;;16.46;100.00;95802.59;5030700;28;24452;-77
2022/08/28 01:49:21;;;;;;;14.68;13.27;;;;;;;16.44;100.00;95800.13;5030834;28;24995;-77
2022/08/28 01:51:48;;;;;;;13.88;12.50;;;;;;;16.36;100.00;95814.81;5030088;28;24458;-77
2022/08/28 01:54:15;;;;;;;13.93;12.53;;;;;;;16.34;100.00;95814.09;5031010;28;24431;-77
2022/08/28 01:56:43;;;;;;;14.20;12.70;;;;;;;16.42;100.00;95807.25;5030442;28;24540;-77
2022/08/28 01:59:13;;;;;;;14.05;12.38;;;;;;;16.45;100.00;95809.59;5030193;28;25004;-77
2022/08/28 02:01:42;;;;;;;13.48;12.25;;;;;;;16.42;100.00;95809.03;5030617;28;24474;-77
2022/08/28 02:04:09;;;;;;;13.57;12.00;;;;;;;16.50;100.00;95806.63;5027141;28;24930;-77
2022/08/28 02:06:36;;;;;;;12.82;11.07;;;;;;;16.58;100.00;95813.81;5034125;28;24459;-77
2022/08/28 02:09:04;;;;;;;12.88;11.65;;;;;;;16.65;100.00;95814.94;5055816;23;25054;-79
2022/08/28 02:11:31;;;;;;;11.98;10.88;;;;;;;16.69;100.00;95817.13;5047122;28;24431;-79
2022/08/28 02:13:59;;;;;;;13.48;12.18;;;;;;;16.71;100.00;95811.75;5042401;28;24443;-79
2022/08/28 02:16:27;;;;;;;12.25;10.77;;;;;;;16.64;100.00;95813.25;5046456;28;24435;-79
2022/08/28 02:18:54;;;;;;;11.05;10.05;;;;;;;16.58;100.00;95809.41;5037934;28;24451;-79
2022/08/28 02:21:21;;;;;;;10.15;9.32;;;;;;;16.56;100.00;95807.88;5031014;28;24447;-79
2022/08/28 02:23:47;;;;;;;9.07;8.27;;;;;;;16.54;100.00;95807.16;5035080;28;24435;-79
2022/08/28 02:26:14;;;;;;;8.70;7.80;;;;;;;16.52;100.00;95803.84;5032030;28;24793;-79
2022/08/28 02:28:42;;;;;;;12.80;10.10;;;;;;;16.48;100.00;95810.31;5034268;28;24471;-79
2022/08/28 02:31:09;;;;;;;10.93;9.93;;;;;;;16.52;100.00;95812.53;5032031;28;24431;-79
2022/08/28 02:33:38;;;;;;;9.17;8.27;;;;;;;16.57;100.00;95817.34;5038687;28;24447;-79
2022/08/28 02:36:07;;;;;;;8.35;7.55;;;;;;;16.57;100.00;95818.19;5031877;28;24436;-79
2022/08/28 02:38:34;;;;;;;7.90;7.20;;;;;;;16.54;100.00;95818.47;5032626;28;24793;-79
2022/08/28 02:41:00;;;;;;;7.37;6.67;;;;;;;16.47;100.00;95813.91;5022727;28;24432;-79
2022/08/28 02:43:27;;;;;;;10.90;9.82;;;;;;;16.47;100.00;95817.34;5027733;28;24435;-78
2022/08/28 02:45:53;;;;;;;41.95;11.55;;;;;;;16.47;100.00;95819.94;5022091;28;24447;-80
2022/08/28 02:48:20;;;;;;;18.67;11.88;;;;;;;16.52;100.00;95811.72;5024143;28;24930;-79
2022/08/28 02:50:48;;;;;;;16.45;12.18;;;;;;;16.54;100.00;95810.63;5026655;28;24447;-77
2022/08/28 02:53:15;;;;;;;11.07;9.95;;;;;;;16.58;100.00;95812.00;5032215;28;24980;-78
2022/08/28 02:55:41;;;;;;;14.07;12.57;;;;;;;16.49;100.00;95817.19;5031667;28;24436;-80
2022/08/28 02:58:08;;;;;;;13.77;12.40;;;;;;;16.49;100.00;95812.78;5037596;28;24443;-77
2022/08/28 03:00:35;;;;;;;18.52;16.27;;;;;;;16.55;100.00;95801.81;5030492;28;24439;-77
2022/08/28 03:03:02;;;;;;;18.17;15.55;;;;;;;16.62;100.00;95808.16;5043327;28;24432;-77
2022/08/28 03:05:28;;;;;;;16.38;14.63;;;;;;;16.66;100.00;95799.09;5028572;28;24470;-75
2022/08/28 03:07:56;;;;;;;14.27;11.82;;;;;;;16.72;100.00;95800.34;5036820;28;24459;-75
2022/08/28 03:10:23;;;;;;;12.48;11.20;;;;;;;16.72;100.00;95799.50;5031183;28;24467;-75
2022/08/28 03:12:50;;;;;;;11.93;10.73;;;;;;;16.87;100.00;95808.66;5027800;28;24436;-75
2022/08/28 03:15:17;;;;;;;16.35;10.82;;;;;;;16.78;100.00;95806.88;5037139;28;24791;-75
2022/08/28 03:17:43;;;;;;;13.88;10.95;;;;;;;16.77;100.00;95808.66;5026644;28;24436;-75
2022/08/28 03:20:12;;;;;;;11.20;10.10;;;;;;;16.66;100.00;95812.16;5024383;28;25023;-76
2022/08/28 03:25:25;;;;;;;14.68;11.25;;;;;;;16.55;100.00;95803.59;5033529;28;24439;-75
2022/08/28 03:27:52;;;;;;;11.68;10.68;;;;;;;16.49;100.00;95804.94;5037630;28;24452;-76
2022/08/28 03:30:20;;;;;;;13.45;11.32;;;;;;;16.44;100.00;95805.34;5030395;28;24447;-76
2022/08/28 03:32:47;;;;;;;13.10;11.27;;;;;;;16.48;100.00;95805.91;5035162;28;24443;-75
2022/08/28 03:35:13;;;;;;;13.73;12.23;;;;;;;16.50;100.00;95811.84;5029763;28;24438;-77
2022/08/28 03:37:40;;;;;;;15.40;13.60;;;;;;;16.55;100.00;95806.22;5030147;28;25007;-76
2022/08/28 03:40:09;;;;;;;13.90;12.50;;;;;;;16.61;100.00;95814.38;5037706;28;24443;-77
2022/08/28 03:42:36;;;;;;;15.98;14.35;;;;;;;16.60;100.00;95811.88;5034541;28;24439;-77
2022/08/28 03:45:04;;;;;;;15.30;13.77;;;;;;;16.62;100.00;95816.00;5026575;28;24962;-76
2022/08/28 03:47:30;;;;;;;13.25;11.95;;;;;;;16.66;100.00;95812.16;5029079;28;24540;-77
2022/08/28 03:49:57;;;;;;;15.05;13.55;;;;;;;16.65;100.00;95820.16;5028705;28;24462;-77
2022/08/28 03:52:24;;;;;;;16.33;14.63;;;;;;;16.64;100.00;95819.31;5033652;28;24804;-77
2022/08/28 03:54:51;;;;;;;16.92;15.00;;;;;;;16.67;100.00;95813.81;5028933;28;24516;-77
2022/08/28 03:57:19;;;;;;;17.80;15.05;;;;;;;16.68;100.00;95818.09;5036587;28;24438;-76
2022/08/28 03:59:48;;;;;;;16.73;14.95;;;;;;;16.72;100.00;95816.03;5033519;28;24435;-76
2022/08/28 04:02:17;;;;;;;18.67;16.65;;;;;;;16.63;100.00;95820.28;5038753;28;24435;-77
2022/08/28 04:04:44;;;;;;;16.20;14.40;;;;;;;16.73;100.00;95819.50;5031058;28;24493;-77
2022/08/28 04:07:11;;;;;;;17.90;15.77;;;;;;;16.70;100.00;95817.97;5039129;28;24451;-77
2022/08/28 04:09:37;;;;;;;16.92;15.13;;;;;;;16.73;100.00;95827.34;5024130;28;24444;-77
2022/08/28 04:12:04;;;;;;;17.00;15.30;;;;;;;16.73;100.00;95822.13;5039182;28;24446;-77
2022/08/28 04:14:31;;;;;;;17.23;14.65;;;;;;;16.77;100.00;95826.16;5033332;28;25002;-76
2022/08/28 04:16:58;;;;;;;17.37;15.67;;;;;;;16.81;100.00;95819.69;5026253;28;24443;-77
2022/08/28 04:19:25;;;;;;;19.33;17.33;;;;;;;16.81;100.00;95822.31;5035515;28;24443;-77
2022/08/28 04:21:52;;;;;;;24.30;18.37;;;;;;;16.79;100.00;95824.22;5032611;28;25031;-76
2022/08/28 04:24:19;;;;;;;21.85;17.77;;;;;;;16.84;100.00;95822.03;5033040;28;24534;-77
2022/08/28 04:26:45;;;;;;;23.75;19.50;;;;;;;16.81;100.00;95823.13;5034744;28;24440;-77
2022/08/28 04:29:12;;;;;;;25.77;19.08;;;;;;;16.90;100.00;95821.50;5033008;28;24456;-77
2022/08/28 04:31:38;;;;;;;21.35;16.42;;;;;;;16.84;100.00;95820.25;5032199;28;24996;-76
2022/08/28 04:34:07;;;;;;;20.15;17.70;;;;;;;16.86;100.00;95825.34;5029186;28;24459;-77
2022/08/28 04:36:34;;;;;;;23.10;19.77;;;;;;;16.85;100.00;95815.84;5035154;28;24447;-77
2022/08/28 04:39:04;;;;;;;21.10;18.90;;;;;;;16.83;100.00;95815.97;5028770;28;24441;-76
2022/08/28 04:41:30;;;;;;;24.15;19.35;;;;;;;16.86;100.00;95826.16;5039590;28;24859;-76
2022/08/28 04:43:57;;;;;;;22.02;19.50;;;;;;;16.91;100.00;95828.41;5020878;28;24444;-76
2022/08/28 04:46:25;;;;;;;22.42;19.25;;;;;;;16.91;100.00;95824.00;5024164;28;24446;-77
2022/08/28 04:48:51;;;;;;;22.33;19.10;;;;;;;16.88;100.00;95826.03;5031289;28;24883;-77
2022/08/28 04:51:19;;;;;;;26.13;22.63;;;;;;;16.77;100.00;95834.81;5033471;28;25030;-77
2022/08/28 04:53:46;;;;;;;24.45;20.48;;;;;;;16.85;100.00;95828.91;5032084;28;24874;-76
2022/08/28 04:56:14;;;;;;;25.42;22.58;;;;;;;16.91;100.00;95829.22;5029615;28;24439;-77
2022/08/28 04:58:43;;;;;;;24.95;22.20;;;;;;;16.79;100.00;95837.28;5030354;28;24443;-77
2022/08/28 05:01:11;;;;;;;22.47;20.07;;;;;;;16.82;100.00;95835.22;5035078;28;24439;-75
2022/08/28 05:03:38;;;;;;;22.45;20.05;;;;;;;16.82;100.00;95834.41;5035359;28;24435;-75
2022/08/28 05:06:05;;;;;;;20.95;17.92;;;;;;;16.86;100.00;95835.78;5037844;28;24431;-75
2022/08/28 05:08:33;;;;;;;21.75;18.50;;;;;;;16.95;100.00;95832.41;5021026;28;24464;-74
2022/08/28 05:11:10;;;;;;;20.65;18.42;;;;;;;17.12;100.00;95834.34;5030715;28;24434;-74
2022/08/28 05:13:36;;;;;;;21.13;18.77;;;;;;;17.08;100.00;95824.28;5041632;28;24539;-75
2022/08/28 05:16:04;;;;;;;21.63;17.90;;;;;;;17.03;100.00;95837.78;5033840;28;25038;-75
2022/08/28 05:18:30;;;;;;;19.30;17.03;;;;;;;16.97;100.00;95840.91;5030721;28;24992;-75
2022/08/28 05:20:57;;;;;;;19.27;17.30;;;;;;;16.95;100.00;95844.66;5032569;28;24440;-75
2022/08/28 05:23:24;;;;;;;18.38;16.50;;;;;;;16.92;100.00;95840.50;5038543;28;24493;-74
2022/08/28 05:25:51;;;;;;;20.20;17.58;;;;;;;16.94;100.00;95841.19;5029638;28;25028;-75
2022/08/28 05:28:18;;;;;;;20.13;18.00;;;;;;;16.99;100.00;95846.88;5037858;28;24465;-74
2022/08/28 05:30:45;;;;;;;20.37;15.53;;;;;;;16.95;100.00;95845.47;5032904;28;24514;-75
2022/08/28 05:33:14;;;;;;;19.08;17.08;;;;;;;16.96;100.00;95844.50;5031858;28;24435;-75
2022/08/28 05:35:43;;;;;;;22.38;17.92;;;;;;;16.88;100.00;95844.34;5024641;28;24446;-74
2022/08/28 05:38:11;;;;;;;22.70;18.92;;;;;;;16.88;100.00;95844.34;5037001;28;24432;-75
2022/08/28 05:40:41;;;;;;;21.52;19.38;;;;;;;17.01;100.00;95844.94;5031634;28;24472;-75
2022/08/28 05:43:09;;;;;;;20.67;18.50;;;;;;;17.01;100.00;95847.53;5035358;28;24443;-75
2022/08/28 05:45:36;;;;;;;23.65;20.83;;;;;;;16.96;100.00;95846.31;5035012;28;24531;-74
2022/08/28 05:48:03;;;;;;;22.80;20.35;;;;;;;17.06;100.00;95849.78;5029436;28;24471;-74
2022/08/28 05:50:30;;;;;;;23.95;21.33;;;;;;;17.24;100.00;95852.53;5031053;28;24432;-72
2022/08/28 05:52:57;;;;;;;26.55;23.05;;;;;;;17.31;100.00;95856.28;5035590;28;24803;-75
2022/08/28 05:55:23;;;;;;;22.93;20.50;;;;;;;17.24;100.00;95855.16;5031609;28;24430;-75
2022/08/28 05:57:50;;;;;;;24.95;21.20;;;;;;;17.20;100.00;95857.22;5028119;28;24448;-74
2022/08/28 06:00:18;;;;;;;25.85;20.35;;;;;;;17.06;100.00;95853.22;5034248;28;24435;-75
2022/08/28 06:02:44;;;;;;;27.75;23.42;;;;;;;16.93;100.00;95861.28;5031677;28;24436;-75
2022/08/28 06:05:11;;;;;;;25.65;22.45;;;;;;;16.89;100.00;95859.91;5030903;28;24983;-75
2022/08/28 06:07:38;;;;;;;25.45;22.13;;;;;;;16.87;100.00;95861.84;5031703;28;24468;-74
2022/08/28 06:10:06;;;;;;;21.52;19.35;;;;;;;16.98;100.00;95865.28;5035451;28;24443;-74
2022/08/28 06:12:32;;;;;;;25.98;21.85;;;;;;;17.02;100.00;95858.81;5025713;28;24860;-74
2022/08/28 06:14:59;;;;;;;24.23;21.73;;;;;;;16.95;100.00;95865.59;5036653;28;24805;-74
2022/08/28 06:17:27;;;;;;;24.02;21.27;;;;;;;17.25;100.00;95864.69;5034816;28;24432;-75
2022/08/28 06:19:53;;;;;;;28.10;22.98;;;;;;;17.45;100.00;95853.28;5024942;28;24452;-75
2022/08/28 06:22:20;;;;;;;25.73;21.20;;;;;;;17.32;100.00;95856.16;5030312;28;24497;-75
2022/08/28 06:24:46;;;;;;;23.88;20.60;;;;;;;17.34;100.00;95861.25;5030096;28;25007;-75
2022/08/28 06:27:13;;;;;;;28.42;22.05;;;;;;;17.34;100.00;95858.63;5034995;28;25730;-75
2022/08/28 06:29:40;;;;;;;29.02;22.25;;;;;;;17.41;100.00;95865.81;5027573;28;24992;-75
2022/08/28 06:32:07;;;;;;;28.48;21.35;;;;;;;17.38;100.00;95870.47;5034856;28;24446;-75
2022/08/28 06:34:35;;;;;;;24.77;21.08;;;;;;;17.41;100.00;95867.59;5034378;28;24490;-77
2022/08/28 06:37:02;;;;;;;26.63;21.48;;;;;;;17.43;100.00;95876.16;5027658;28;24447;-75
2022/08/28 06:39:29;;;;;;;25.80;20.38;;;;;;;17.30;100.00;95880.81;5028353;28;24489;-77
2022/08/28 06:41:55;;;;;;;24.15;21.33;;;;;;;17.32;100.00;95871.88;5032453;28;25029;-77
2022/08/28 06:44:22;;;;;;;31.83;25.25;;;;;;;17.42;100.00;95874.47;5030365;28;24964;-77
2022/08/28 06:46:50;;;;;;;32.95;23.42;;;;;;;17.57;100.00;95885.38;5027012;28;24439;-78
2022/08/28 06:49:17;;;;;;;27.67;21.93;;;;;;;17.36;100.00;95885.50;5026875;28;24472;-78
2022/08/28 06:51:45;;;;;;;26.90;22.40;;;;;;;17.58;100.00;95872.19;5030385;28;24447;-78
2022/08/28 06:54:14;;;;;;;28.27;22.52;;;;;;;17.55;100.00;95872.44;5028183;28;24470;-77
2022/08/28 06:56:40;;;;;;;26.25;22.92;;;;;;;17.46;100.00;95890.75;5035568;28;24439;-77
2022/08/28 06:59:07;;;;;;;30.55;23.92;;;;;;;17.29;100.00;95882.59;5029941;28;25291;-77
2022/08/28 07:01:36;;;;;;;31.90;24.25;;;;;;;17.31;100.00;95883.28;5030046;28;24435;-77
2022/08/28 07:04:05;;;;;;;29.65;22.95;;;;;;;17.24;100.00;95884.78;5030036;28;24432;-77
2022/08/28 07:06:33;;;;;;;24.52;21.92;;;;;;;17.43;100.00;95894.50;5029699;28;24427;-76
2022/08/28 07:09:01;;;;;;;29.08;21.95;;;;;;;17.37;100.00;95892.41;5029363;28;24525;-77
2022/08/28 07:11:31;;;;;;;27.80;22.83;;;;;;;17.38;100.00;95896.66;5029661;28;24447;-77
2022/08/28 07:13:58;;;;;;;25.60;20.90;;;;;;;17.26;100.00;95895.13;5027310;28;24554;-77
2022/08/28 07:16:27;;;;;;;23.13;20.60;;;;;;;17.36;100.00;95902.03;5030107;28;24443;-77
2022/08/28 07:18:54;;;;;;;24.15;19.95;;;;;;;17.32;100.00;95899.84;5029456;28;24432;-77
2022/08/28 07:21:20;;;;;;;30.08;20.00;;;;;;;17.29;100.00;95900.09;5029905;28;24443;-77
2022/08/28 07:23:48;;;;;;;31.30;21.83;;;;;;;17.41;100.00;95899.84;5029805;28;24447;-77
2022/08/28 07:26:18;;;;;;;21.67;19.40;;;;;;;17.36;100.00;95909.91;5029983;28;24436;-77
2022/08/28 07:28:44;;;;;;;25.98;20.33;;;;;;;17.44;100.00;95901.38;5033000;28;24483;-74
2022/08/28 07:31:14;;;;;;;25.43;20.60;;;;;;;17.46;100.00;95912.53;5033894;28;24439;-77
2022/08/28 07:33:42;;;;;;;23.50;20.63;;;;;;;17.47;100.00;95911.56;5045327;28;24446;-77
2022/08/28 07:36:11;;;;;;;24.00;20.27;;;;;;;17.52;100.00;95913.78;5034818;28;24537;-77
2022/08/28 07:38:38;;;;;;;27.38;20.20;;;;;;;17.61;100.00;95905.09;5035632;28;24444;-77
2022/08/28 07:41:13;;;;;;;24.50;19.10;;;;;;;17.49;100.00;95914.88;5033374;28;24988;-77
2022/08/28 07:46:24;;;;;;;28.92;19.15;;;;;;;17.56;100.00;95923.84;5029364;28;24403;-75
2022/08/28 07:48:52;;;;;;;21.70;18.67;;;;;;;17.56;100.00;95931.69;5033919;28;24471;-75
2022/08/28 07:51:18;;;;;;;21.40;17.95;;;;;;;17.56;100.00;95926.47;5034431;28;24459;-75
2022/08/28 07:53:45;;;;;;;23.77;18.35;;;;;;;17.57;100.00;95930.72;5033793;28;24995;-77
2022/08/28 07:56:12;;;;;;;22.67;17.15;;;;;;;17.57;100.00;95925.50;5032925;28;24451;-77
2022/08/28 07:58:39;;;;;;;23.58;17.33;;;;;;;17.57;100.00;95932.53;5033201;28;24566;-77
2022/08/28 08:01:07;;;;;;;21.67;17.60;;;;;;;17.51;100.00;95930.47;5034151;28;24518;-75
2022/08/28 08:03:33;;;;;;;19.02;17.02;;;;;;;17.57;100.00;95930.72;5036691;28;24440;-77
2022/08/28 08:06:02;;;;;;;23.10;18.17;;;;;;;17.51;100.00;95933.91;5032894;28;24980;-77
2022/08/28 08:08:29;;;;;;;28.52;19.45;;;;;;;17.49;100.00;95938.44;5075113;23;24811;-75
2022/08/28 08:10:59;;;;;;;23.98;17.42;;;;;;;17.53;100.00;95941.63;5044544;28;24427;-75
2022/08/28 08:13:28;;;;;;;26.20;18.55;;;;;;;17.58;100.00;95949.91;5041265;28;24438;-75
2022/08/28 08:15:54;;;;;;;24.15;18.23;;;;;;;17.62;100.00;95951.31;5052533;28;24427;-76
2022/08/28 08:18:22;;;;;;;20.67;16.63;;;;;;;17.85;100.00;95951.91;5051362;28;24800;-75
2022/08/28 08:20:49;;;;;;;24.10;19.00;;;;;;;17.94;100.00;95952.88;5049851;28;24443;-76
2022/08/28 08:23:15;;;;;;;25.15;18.13;;;;;;;17.96;100.00;95969.31;5051276;28;24446;-75
2022/08/28 08:25:42;;;;;;;23.17;19.80;;;;;;;18.08;100.00;95962.94;5049946;28;24972;-75
2022/08/28 08:28:08;;;;;;;23.73;18.52;;;;;;;18.16;100.00;95968.31;5044017;28;24471;-75
2022/08/28 08:30:34;;;;;;;26.47;19.20;;;;;;;18.00;100.00;95970.69;5051913;28;24446;-75
2022/08/28 08:33:01;;;;;;;21.35;18.48;;;;;;;17.87;100.00;95976.16;5042533;28;24443;-75
2022/08/28 08:35:29;;;;;;;23.65;18.17;;;;;;;17.91;100.00;95972.34;5048158;28;24446;-75
2022/08/28 08:37:55;;;;;;;25.50;18.83;;;;;;;17.74;100.00;95980.81;5043814;28;24446;-76
2022/08/28 08:40:22;;;;;;;20.83;17.15;;;;;;;17.82;100.00;95981.81;5052000;28;24450;-75
2022/08/28 08:42:55;;;;;;;23.67;18.30;;;;;;;17.84;100.00;95986.94;5045358;28;24442;-75
2022/08/28 08:45:25;;;;;;;24.67;19.52;;;;;;;17.96;100.00;95987.63;5066182;28;24792;-75
2022/08/28 08:47:55;;;;;;;28.70;18.58;;;;;;;17.89;100.00;95984.72;5057070;28;24450;-76
2022/08/28 08:50:24;;;;;;;26.30;19.80;;;;;;;17.87;100.00;95984.03;5052324;28;24676;-77
2022/08/28 08:53:06;;;;;;;26.02;16.75;;;;;;;17.95;100.00;95989.44;5043408;28;24450;-77
2022/08/28 08:55:35;;;;;;;27.02;18.42;;;;;;;18.01;100.00;95990.66;5048072;28;24442;-77
2022/08/28 08:58:07;;;;;;;22.70;17.92;;;;;;;18.25;100.00;95982.41;5052013;28;24435;-78
2022/08/28 09:00:38;;;;;;;17.85;16.00;;;;;;;18.27;100.00;95988.34;5046697;28;24423;-76
2022/08/28 09:03:09;;;;;;;20.17;17.55;;;;;;;18.36;100.00;95990.16;5052104;28;24436;-77
2022/08/28 09:05:44;;;;;;;21.83;16.75;;;;;;;18.34;100.00;95992.88;5046882;28;24438;-77
2022/08/28 09:08:22;;;;;;;16.40;14.73;;;;;;;18.42;100.00;95986.94;5041688;28;24459;-78
2022/08/28 09:10:59;;;;;;;21.90;16.13;;;;;;;18.49;100.00;95997.72;5046836;28;25099;-78
2022/08/28 09:13:32;;;;;;;16.87;15.07;;;;;;;18.80;100.00;95995.75;5053067;28;25144;-78
2022/08/28 09:15:59;;;;;;;17.70;14.50;;;;;;;18.74;100.00;95999.78;5043953;28;24972;-78
2022/08/28 09:18:31;;;;;;;18.13;15.43;;;;;;;18.79;100.00;95996.72;5052421;28;24793;-77
2022/08/28 09:20:59;;;;;;;24.20;17.67;;;;;;;18.99;100.00;95998.34;5048180;28;24504;-78
2022/08/28 09:23:28;;;;;;;20.90;14.53;;;;;;;18.75;100.00;95998.00;5046132;28;24442;-78
2022/08/28 09:25:57;;;;;;;17.13;14.43;;;;;;;18.78;100.00;95998.53;5047932;28;24439;-78
2022/08/28 09:28:26;;;;;;;19.88;15.48;;;;;;;18.81;100.00;96000.88;5052356;28;24796;-78
2022/08/28 09:31:02;;;;;;;19.13;15.03;;;;;;;19.12;100.00;96005.06;5048044;28;24810;-77
2022/08/28 09:33:31;;;;;;;15.70;14.02;;;;;;;19.05;100.00;96002.19;5052456;28;24427;-78
2022/08/28 09:36:18;;;;;;;14.85;13.35;;;;;;;19.12;100.00;96005.06;5048503;28;24999;-77
2022/08/28 09:38:46;;;;;;;15.47;13.27;;;;;;;19.21;100.00;96002.44;5049711;28;24971;-78
2022/08/28 09:43:57;;;;;;;17.60;14.05;;;;;;;19.78;100.00;95999.69;5043430;28;24411;-78
2022/08/28 09:46:28;;;;;;;20.65;15.73;;;;;;;19.85;100.00;96003.41;5051742;28;24443;-77
2022/08/28 09:49:09;;;;;;;17.95;14.48;;;;;;;19.99;100.00;95997.63;5048776;28;24464;-78
2022/08/28 09:51:37;;;;;;;15.73;13.67;;;;;;;20.24;100.00;96005.75;5050440;28;24998;-78
2022/08/28 09:54:15;;;;;;;18.17;14.68;;;;;;;20.53;100.00;96008.19;5048821;28;24474;-78
2022/08/28 09:56:43;;;;;;;19.20;13.90;;;;;;;20.85;100.00;96002.34;5050179;28;24439;-77
2022/08/28 09:59:12;;;;;;;16.30;12.43;;;;;;;21.26;100.00;96003.41;5042806;28;24436;-78
2022/08/28 10:01:49;;;;;;;16.70;12.20;;;;;;;21.54;100.00;96010.31;5042471;28;24435;-78
2022/08/28 10:04:41;;;;;;;15.18;11.90;;;;;;;21.46;100.00;96009.28;5046538;28;24526;-78
2022/08/28 10:07:14;;;;;;;15.70;11.52;;;;;;;21.65;100.00;96002.94;5039732;28;24438;-78
2022/08/28 10:09:53;;;;;;;18.40;12.05;;;;;;;21.30;100.00;96016.28;5040681;28;24829;-78
2022/08/28 10:12:39;;;;;;;14.77;11.93;;;;;;;21.08;100.00;96007.09;5046488;28;24432;-78
2022/08/28 10:15:13;;;;;;;14.77;11.35;;;;;;;20.85;100.00;95999.72;5044601;28;24439;-78
2022/08/28 10:17:50;;;;;;;14.30;11.82;;;;;;;20.43;100.00;96005.63;5045963;28;24427;-77
2022/08/28 10:20:23;;;;;;;19.73;12.68;;;;;;;19.99;100.00;96010.78;5048446;28;24434;-78
2022/08/28 10:23:01;;;;;;;16.52;11.10;;;;;;;20.10;100.00;96015.00;5046146;28;25022;-77
2022/08/28 10:25:38;;;;;;;15.93;11.43;;;;;;;20.41;100.00;96010.19;5048607;28;24427;-78
2022/08/28 10:28:19;;;;;;;16.33;10.50;;;;;;;20.40;100.00;96011.16;5044035;28;24524;-77
2022/08/28 10:30:55;;;;;;;23.87;10.77;;;;;;;20.21;100.00;96013.94;5048597;28;25010;-78
2022/08/28 10:33:38;;;;;;;14.45;11.38;;;;;;;19.85;100.00;96006.03;5045942;28;24435;-77
2022/08/28 10:36:12;;;;;;;18.40;12.25;;;;;;;19.62;100.00;96000.34;5049974;28;24524;-78
2022/08/28 10:38:41;;;;;;;15.68;11.15;;;;;;;19.74;100.00;96003.59;5044842;28;25015;-77
2022/08/28 10:41:16;;;;;;;16.88;12.07;;;;;;;19.58;100.00;95997.16;5035553;28;20850;-78
2022/08/28 10:43:46;;;;;;;15.43;11.13;;;;;;;19.76;100.00;96004.25;5044667;28;24434;-77
2022/08/28 10:46:16;;;;;;;14.55;10.38;;;;;;;20.13;100.00;96006.78;5050618;28;24436;-77
2022/08/28 10:48:47;;;;;;;13.43;9.23;;;;;;;20.26;100.00;96003.81;5045344;28;24440;-77
2022/08/28 10:51:20;;;;;;;11.65;8.57;;;;;;;20.62;100.00;95995.94;5043394;28;24454;-78
2022/08/28 10:53:53;;;;;;;15.25;8.82;;;;;;;20.42;100.00;96014.47;5045248;28;24429;-77
2022/08/28 10:56:25;;;;;;;13.38;8.25;;;;;;;20.28;100.00;96007.94;5050658;28;24839;-77
2022/08/28 10:58:56;;;;;;;13.55;8.02;;;;;;;20.16;100.00;96010.94;5045359;28;24818;-77
2022/08/28 11:01:27;;;;;;;10.95;7.78;;;;;;;20.22;100.00;96005.09;5050203;28;24974;-77
2022/08/28 11:03:57;;;;;;;13.45;7.70;;;;;;;20.13;100.00;96008.59;5046274;28;24801;-77
2022/08/28 11:06:29;;;;;;;12.98;7.35;;;;;;;20.25;100.00;96007.41;5050750;28;24439;-78
2022/08/28 11:08:58;;;;;;;9.43;7.00;;;;;;;20.60;100.00;96011.03;5046186;28;24454;-77
2022/08/28 11:11:42;;;;;;;13.05;7.65;;;;;;;20.65;100.00;96014.03;5049955;28;24451;-77
2022/08/28 11:14:10;;;;;;;11.10;7.43;;;;;;;20.77;100.00;96008.38;5034990;28;24983;-78
2022/08/28 11:16:42;;;;;;;12.15;7.38;;;;;;;20.92;100.00;96011.28;5043953;28;24443;-77
2022/08/28 11:19:23;;;;;;;11.38;8.38;;;;;;;21.29;100.00;96012.81;5048339;28;24789;-77
2022/08/28 11:21:54;;;;;;;12.95;7.40;;;;;;;21.63;100.00;96014.66;5050303;28;24408;-78
2022/08/28 11:24:31;;;;;;;11.07;6.95;;;;;;;21.48;100.00;96012.59;5037555;28;24498;-78
2022/08/28 11:27:09;;;;;;;12.02;7.40;;;;;;;21.71;100.00;96015.50;5044929;28;24883;-77